weather.gov     
National Weather Service

Terminal Aerodrome Forecast
NWS Homepage
This page is being discontinued on March 12, 2014.
The same data is available at this site. Please update your bookmarks.
Thank you, and we apologize for the inconvenience.
Please send an email to SR-SRH.Webmaster@noaa.gov with any concerns.


Current Version
Previous Version:    01  02  03  04  05  06  07  08  09  10  11  12  13  14  15  16  17  18  19  20  21  22  23  24  25  26  27  28  29  30  
   31  32  33  34  35  
[Printable]
310
FTUS41 KRNK 231741
TAFBLF
TAF
KBLF 231741Z 2318/2418 22006KT P6SM SCT010 BKN023
     FM240300 32005KT 4SM BR SCT007 OVC015
     FM240600 VRB04KT 3SM -DZ BR OVC004
     FM241200 12003KT 2SM BR OVC002
     FM241400 12003KT 4SM BR OVC003
     FM241600 13004KT 4SM HZ OVC012=


310
FTUS41 KRNK 231741
TAFBLF
TAF
KBLF 231741Z 2318/2418 22006KT P6SM SCT010 BKN023
     FM240300 32005KT 4SM BR SCT007 OVC015
     FM240600 VRB04KT 3SM -DZ BR OVC004
     FM241200 12003KT 2SM BR OVC002
     FM241400 12003KT 4SM BR OVC003
     FM241600 13004KT 4SM HZ OVC012=




U.S. Dept. of Commerce
NOAA National Weather Service
1325 East West Highway
Silver Spring, MD 20910
E-mail: w-nws.webmaster@noaa.gov
Page last modified: May 16, 2007
NATIONAL WEATHER SERVICE: for Safety, for Work, for Fun - FOR LIFE